Coldwater, MI (49036)

3:02 AM EST on March 01, 2015 (GMT -0500)
Coldwater Airport Subdivision | Change Station
CLOSE
Current Station
Personal Weather Station
Location: Coldwater, MI
Elevation: 965 ft
Nearby Weather Stations

Elev 965 ft 41.94 °N, 85.05 °W | Updated 15 seconds ago

Light Snow
Light Snow
15.1 °F
Feels Like 15 °F
N
0.2
Wind Variable Wind from East
Gusts 2.5 mph

Today
High -- | Low -- °F
--% Chance of Precip.
Yesterday
High -- | Low -- °F
Precip. -- in
7:15 AM 6:30 PM
Waxing Gibbous, 83% visible
Pressure 30.43 in
Visibility 4.0 miles
Clouds Scattered Clouds 3800 ft
Mostly Cloudy 4600 ft
Overcast 5000 ft
Windchill 15 °F
Dew Point 7 °F
Humidity 71%
Rainfall 0.00 in
Snow Depth Not available.
UV 0.0 out of 12
Pollen .40 out of 12
Air Quality Not available.
Flu Activity Not available.
METAR KOEB 010754Z AUTO 00000KT 4SM -SN SCT038 BKN046 OVC050 M09/M11 A3043 RMK AO2 T10951115

More Conditions Fewer Conditions

Pressure 30.43 in
Visibility 4.0 miles
Clouds Scattered Clouds 3800 ft
Mostly Cloudy 4600 ft
Overcast 5000 ft
Windchill 15 °F
Dew Point 7 °F
Humidity 71%
Rainfall 0.00 in
Snow Depth Not available.
UV 0.0 out of 12
Pollen .40 out of 12
Air Quality Not available.
Flu Activity Not available.
METAR KOEB 010754Z AUTO 00000KT 4SM -SN SCT038 BKN046 OVC050 M09/M11 A3043 RMK AO2 T10951115

More Conditions Fewer Conditions

10-Day Weather Forecast

Almanac

Astronomy

Mar. 01, 2015 Rise Set
Actual Time
Civil Twilight
Nautical Twilight
Astronomical Twilight
Moon
Length of Visible Light
Length of Day
Tomorrow will be .
, % of the Moon is Illuminated

Today's Extremes

State Highs State Lows

Community

WunderPhotos

Upload Photos

1,801,350 photos uploaded!

WunderBlogs® & News

Nearby

Air Quality

  Air Quality AQ Index Pollutant
Not available.

Snow Depth

Station Depth Elevation

Earthquake Activity

City Distance Mag. Time & Date
Minimum magnitude displayed is 2.5.

Coastal Water Temperatures

Place Temperature

Nearby Weather Stations